New Salem, Kansas
Current Conditions -  °F | °C
As of 4:54 PM on Wednesday 22 Oct 2014 (Local Time) from KWLD Reporting Station
Few Clouds Few Clouds  
Wind Chill: 75°   Ceiling: Unl
Heat Index: 75°   Visibility: 10mi
Dew Point: 57°   Wind: 13mph
Humidity: 53%   Direction: 170°S
Pressure: 30.06"   Gusts: NA
Location:  37.2455°N, 96.9242°W
Report Text: KWLD 222154Z AUTO 17011KT 10SM FEW050 24/14 A3006 RMK AO2 SLP173 T02390139
Loading
Personal Weather Stations






























Interactive Weather Map
Tropical Storm Tracking
New forecast layout! Learn more

10-Day Weather Forecast

Advertisements
Track Severe Weather on mobile